หน้าหลัก
METAR-TAF:

METAR-TAF

ท่าอากาศยาน :

คุนหมิง, จีน

ละติจูด: 25-01N, ลองจิจูด: 102-41E, ความสูง: 1892 ม.

การสังเกตสภาพอากาศปัจจุบัน

รายงานได้ทำขึ้นเมื่อ 1 ชั่วโมงและ 7 นาทีที่แล้ว ณ เวลา 23:00 UTC
ลม 6 นอตจากใต้/ตะวันตกเฉียงใต้
อุณหภูมิ 18°C
ความชื้น 94%
ความกดอากาศ 1014 hPa
ทัศนวิสัย 10 กม. หรือมากกว่า
มีเมฆน้อยที่ความสูง 2300 ฟุต

METAR: ZPPP 182300Z 21003MPS 9999 FEW023 18/17 Q1014 NOSIG

เวลา: 08:07 (00:07 UTC)

การพยากรณ์

รายงานได้ทำขึ้นเมื่อ 3 ชั่วโมงและ 1 นาทีที่แล้ว ณ เวลา 21:06 UTC
การพยากรณ์มีผลตั้งแต่วันที่ 19 ณ เวลา 00 UTC จนถึงวันที่ 19 ณ เวลา 24 UTC
ลม 8 นอตจากตะวันตกเฉียงใต้
ทัศนวิสัย 10 กม. หรือมากกว่า
มีเมฆกระจายเป็นบางส่วนที่ความสูง 2300 ฟุต
มีเมฆเป็นส่วนมากเว้นเป็นระยะที่ความสูง 3600 ฟุต
ชั่วคราว
ตั้งแต่วันที่ 19 ณ เวลา 10 UTC จนถึงวันที่ 19 ณ เวลา 13 UTC
มีเมฆน้อยที่ความสูง 2300 ฟุต, คิวมูโลนิมบัส.
มีเมฆกระจายเป็นบางส่วนที่ความสูง 2300 ฟุต
มีเมฆเป็นส่วนมากเว้นเป็นระยะที่ความสูง 3600 ฟุต
พายุฝนฟ้าคะนอง, ฝนตกเล็กน้อย,

TAF: ZPPP 182106Z 1900/1924 22004MPS 9999 SCT023 BKN036 TX24/1908Z TN17/1923Z TEMPO 1910/1913 -TSRA FEW023CB SCT023 BKN036

สังเกตการณ์สภาพอากาศและพยากรณ์อากาศของสนามบินมากกว่า 4000 แห่ง (รายงาน METAR และ TAF).

สถานีที่ดูได้จะแสดงไว้ด้วยจุดสีเหลืองและสีแดงบนแผนที่.

เลื่อนเมาส์ไปเหนือจุดเพื่อดูชื่อสถานี.

แล้วคลิกเพื่อดูสังเกตการณ์และการพยากรณ์สภาพอากาศ.

ในการเปลี่ยนแผนที่: คลิกที่ปุ่มสีเขียวที่มีกากบาทสีดำเพื่อซูมเข้า; ที่ปุ่มสีเขียวที่มีขีดเพื่อซูมออก; หรือที่ลูกศรสีเขียวเพื่อไปยังแผนที่ที่อยู่ติดกัน.


METAR-TAF: